Ornslund, Denmark
Current Conditions -  °F | °C
As of 4:50 PM on Thursday 30 Oct 2014 (Local Time) from EKOD Reporting Station
Scattered Clouds Scattered Clouds  
Wind Chill: 45°   Ceiling: Unl
Heat Index: 45°   Visibility: 6mi
Dew Point: 43°   Wind: 1mph
Humidity: 93%   Direction: 120°ESE
Pressure: 30.24"   Gusts: NA
Location:  55.7°N, 10.6°E
Report Text: EKOD 301550Z 12001KT 9999 FEW040 SCT160 07/06 Q1024
Loading
Personal Weather Stations






























Interactive Weather Map New forecast layout! Learn more

10-Day Weather Forecast

Advertisements
Track Severe Weather on mobile